sensor_id;sensor_type;location;lat;lon;timestamp;P1;durP1;ratioP1;P2;durP2;ratioP2
28774;SDS011;15926;51.348;6.596;2023-02-15T00:00:25;40.83;;;18.45;;
28774;SDS011;15926;51.348;6.596;2023-02-15T00:02:51;39.30;;;18.25;;
28774;SDS011;15926;51.348;6.596;2023-02-15T00:05:17;39.90;;;18.10;;
28774;SDS011;15926;51.348;6.596;2023-02-15T00:07:43;41.50;;;17.25;;
28774;SDS011;15926;51.348;6.596;2023-02-15T00:10:09;43.05;;;18.90;;
28774;SDS011;15926;51.348;6.596;2023-02-15T00:12:37;42.83;;;18.98;;
28774;SDS011;15926;51.348;6.596;2023-02-15T00:15:03;42.35;;;18.27;;
28774;SDS011;15926;51.348;6.596;2023-02-15T00:17:29;44.00;;;18.83;;
28774;SDS011;15926;51.348;6.596;2023-02-15T00:19:55;38.70;;;18.25;;
28774;SDS011;15926;51.348;6.596;2023-02-15T00:22:21;40.35;;;18.67;;
28774;SDS011;15926;51.348;6.596;2023-02-15T00:24:48;37.55;;;17.65;;
28774;SDS011;15926;51.348;6.596;2023-02-15T00:27:15;38.13;;;17.27;;
28774;SDS011;15926;51.348;6.596;2023-02-15T00:29:41;41.63;;;18.27;;
28774;SDS011;15926;51.348;6.596;2023-02-15T00:32:07;39.33;;;18.77;;
28774;SDS011;15926;51.348;6.596;2023-02-15T00:34:33;40.70;;;18.83;;
28774;SDS011;15926;51.348;6.596;2023-02-15T00:36:59;37.72;;;16.75;;
28774;SDS011;15926;51.348;6.596;2023-02-15T00:39:25;37.78;;;17.88;;
28774;SDS011;15926;51.348;6.596;2023-02-15T00:41:52;40.45;;;18.20;;
28774;SDS011;15926;51.348;6.596;2023-02-15T00:44:18;41.15;;;17.92;;
28774;SDS011;15926;51.348;6.596;2023-02-15T00:46:44;40.55;;;17.88;;
28774;SDS011;15926;51.348;6.596;2023-02-15T00:49:10;41.78;;;17.98;;
28774;SDS011;15926;51.348;6.596;2023-02-15T00:51:36;43.70;;;19.15;;
28774;SDS011;15926;51.348;6.596;2023-02-15T00:54:02;34.15;;;17.90;;
28774;SDS011;15926;51.348;6.596;2023-02-15T00:56:28;43.65;;;19.20;;
28774;SDS011;15926;51.348;6.596;2023-02-15T00:58:54;43.75;;;18.98;;
28774;SDS011;15926;51.348;6.596;2023-02-15T01:01:20;45.53;;;19.67;;
28774;SDS011;15926;51.348;6.596;2023-02-15T01:03:46;42.50;;;19.45;;
28774;SDS011;15926;51.348;6.596;2023-02-15T01:06:13;43.75;;;19.13;;
28774;SDS011;15926;51.348;6.596;2023-02-15T01:08:39;41.53;;;19.23;;
28774;SDS011;15926;51.348;6.596;2023-02-15T01:11:06;44.05;;;18.10;;
28774;SDS011;15926;51.348;6.596;2023-02-15T01:13:33;43.70;;;19.25;;
28774;SDS011;15926;51.348;6.596;2023-02-15T01:15:59;43.33;;;19.52;;
28774;SDS011;15926;51.348;6.596;2023-02-15T01:18:25;41.13;;;18.95;;
28774;SDS011;15926;51.348;6.596;2023-02-15T01:20:52;43.97;;;20.35;;
28774;SDS011;15926;51.348;6.596;2023-02-15T01:23:18;43.90;;;18.73;;
28774;SDS011;15926;51.348;6.596;2023-02-15T01:25:44;41.45;;;19.38;;
28774;SDS011;15926;51.348;6.596;2023-02-15T01:28:10;37.78;;;17.38;;
28774;SDS011;15926;51.348;6.596;2023-02-15T01:30:36;43.97;;;19.08;;
28774;SDS011;15926;51.348;6.596;2023-02-15T01:33:02;46.97;;;19.15;;
28774;SDS011;15926;51.348;6.596;2023-02-15T01:35:28;43.90;;;19.83;;
28774;SDS011;15926;51.348;6.596;2023-02-15T01:37:55;46.55;;;19.10;;
28774;SDS011;15926;51.348;6.596;2023-02-15T01:40:21;44.80;;;18.85;;
28774;SDS011;15926;51.348;6.596;2023-02-15T01:42:51;43.50;;;18.88;;
28774;SDS011;15926;51.348;6.596;2023-02-15T01:45:19;47.67;;;19.60;;
28774;SDS011;15926;51.348;6.596;2023-02-15T01:47:51;42.40;;;18.85;;
28774;SDS011;15926;51.348;6.596;2023-02-15T01:50:20;41.70;;;18.85;;
28774;SDS011;15926;51.348;6.596;2023-02-15T01:52:55;41.80;;;18.35;;
28774;SDS011;15926;51.348;6.596;2023-02-15T01:55:21;44.63;;;19.52;;
28774;SDS011;15926;51.348;6.596;2023-02-15T01:57:48;43.78;;;19.90;;
28774;SDS011;15926;51.348;6.596;2023-02-15T02:00:15;47.63;;;19.65;;
28774;SDS011;15926;51.348;6.596;2023-02-15T02:02:42;44.50;;;18.35;;
28774;SDS011;15926;51.348;6.596;2023-02-15T02:05:09;45.00;;;19.02;;
28774;SDS011;15926;51.348;6.596;2023-02-15T02:07:36;39.38;;;18.98;;
28774;SDS011;15926;51.348;6.596;2023-02-15T02:10:04;48.53;;;21.27;;
28774;SDS011;15926;51.348;6.596;2023-02-15T02:12:30;41.13;;;18.92;;
28774;SDS011;15926;51.348;6.596;2023-02-15T02:14:57;41.90;;;20.00;;
28774;SDS011;15926;51.348;6.596;2023-02-15T02:27:51;48.50;;;20.10;;
28774;SDS011;15926;51.348;6.596;2023-02-15T02:30:33;44.58;;;19.70;;
28774;SDS011;15926;51.348;6.596;2023-02-15T02:33:09;50.85;;;20.25;;
28774;SDS011;15926;51.348;6.596;2023-02-15T02:43:23;42.70;;;18.35;;
28774;SDS011;15926;51.348;6.596;2023-02-15T02:45:58;50.05;;;21.30;;
28774;SDS011;15926;51.348;6.596;2023-02-15T02:48:27;44.80;;;18.38;;
28774;SDS011;15926;51.348;6.596;2023-02-15T02:50:53;44.72;;;20.30;;
28774;SDS011;15926;51.348;6.596;2023-02-15T02:53:19;42.28;;;20.45;;
28774;SDS011;15926;51.348;6.596;2023-02-15T02:55:47;43.20;;;20.17;;
28774;SDS011;15926;51.348;6.596;2023-02-15T03:00:57;47.00;;;19.90;;
28774;SDS011;15926;51.348;6.596;2023-02-15T03:05:53;45.70;;;19.27;;
28774;SDS011;15926;51.348;6.596;2023-02-15T03:08:20;51.83;;;21.03;;
28774;SDS011;15926;51.348;6.596;2023-02-15T03:10:48;44.17;;;19.80;;
28774;SDS011;15926;51.348;6.596;2023-02-15T03:13:14;47.20;;;19.20;;
28774;SDS011;15926;51.348;6.596;2023-02-15T03:15:40;45.40;;;20.30;;
28774;SDS011;15926;51.348;6.596;2023-02-15T03:18:28;44.53;;;19.45;;
28774;SDS011;15926;51.348;6.596;2023-02-15T03:20:56;44.38;;;19.55;;
28774;SDS011;15926;51.348;6.596;2023-02-15T03:23:24;45.38;;;20.10;;
28774;SDS011;15926;51.348;6.596;2023-02-15T03:25:58;45.58;;;20.10;;
28774;SDS011;15926;51.348;6.596;2023-02-15T03:28:27;44.00;;;18.83;;
28774;SDS011;15926;51.348;6.596;2023-02-15T03:30:55;48.35;;;19.25;;
28774;SDS011;15926;51.348;6.596;2023-02-15T03:33:23;44.67;;;19.97;;
28774;SDS011;15926;51.348;6.596;2023-02-15T03:35:53;50.83;;;20.55;;
28774;SDS011;15926;51.348;6.596;2023-02-15T03:38:24;47.03;;;19.73;;
28774;SDS011;15926;51.348;6.596;2023-02-15T03:40:51;43.08;;;18.73;;
28774;SDS011;15926;51.348;6.596;2023-02-15T03:46:04;43.42;;;19.42;;
28774;SDS011;15926;51.348;6.596;2023-02-15T03:51:28;46.25;;;20.95;;
28774;SDS011;15926;51.348;6.596;2023-02-15T03:54:15;48.30;;;21.48;;
28774;SDS011;15926;51.348;6.596;2023-02-15T03:57:01;48.33;;;20.63;;
28774;SDS011;15926;51.348;6.596;2023-02-15T03:59:46;45.05;;;19.60;;
28774;SDS011;15926;51.348;6.596;2023-02-15T04:02:34;45.60;;;19.35;;
28774;SDS011;15926;51.348;6.596;2023-02-15T04:05:03;44.47;;;20.27;;
28774;SDS011;15926;51.348;6.596;2023-02-15T04:07:30;44.60;;;19.58;;
28774;SDS011;15926;51.348;6.596;2023-02-15T04:09:55;50.33;;;19.05;;
28774;SDS011;15926;51.348;6.596;2023-02-15T04:12:40;48.72;;;20.42;;
28774;SDS011;15926;51.348;6.596;2023-02-15T04:15:08;47.03;;;19.55;;
28774;SDS011;15926;51.348;6.596;2023-02-15T04:17:53;47.42;;;20.10;;
28774;SDS011;15926;51.348;6.596;2023-02-15T04:20:19;51.75;;;19.55;;
28774;SDS011;15926;51.348;6.596;2023-02-15T04:23:05;42.47;;;18.52;;
28774;SDS011;15926;51.348;6.596;2023-02-15T04:25:50;43.22;;;18.88;;
28774;SDS011;15926;51.348;6.596;2023-02-15T04:28:16;48.88;;;20.23;;
28774;SDS011;15926;51.348;6.596;2023-02-15T04:30:42;45.40;;;20.05;;
28774;SDS011;15926;51.348;6.596;2023-02-15T04:33:08;49.80;;;21.50;;
28774;SDS011;15926;51.348;6.596;2023-02-15T04:35:34;47.00;;;19.73;;
28774;SDS011;15926;51.348;6.596;2023-02-15T04:38:00;51.88;;;20.45;;
28774;SDS011;15926;51.348;6.596;2023-02-15T04:40:26;46.45;;;19.63;;
28774;SDS011;15926;51.348;6.596;2023-02-15T04:42:52;44.65;;;18.88;;
28774;SDS011;15926;51.348;6.596;2023-02-15T04:45:18;45.83;;;19.90;;
28774;SDS011;15926;51.348;6.596;2023-02-15T04:47:44;45.75;;;20.58;;
28774;SDS011;15926;51.348;6.596;2023-02-15T04:50:10;46.83;;;19.35;;
28774;SDS011;15926;51.348;6.596;2023-02-15T04:52:36;50.40;;;19.70;;
28774;SDS011;15926;51.348;6.596;2023-02-15T04:55:02;46.00;;;20.10;;
28774;SDS011;15926;51.348;6.596;2023-02-15T04:57:28;43.88;;;19.08;;
28774;SDS011;15926;51.348;6.596;2023-02-15T04:59:54;46.95;;;20.30;;
28774;SDS011;15926;51.348;6.596;2023-02-15T05:02:20;47.33;;;19.35;;
28774;SDS011;15926;51.348;6.596;2023-02-15T05:04:46;42.10;;;18.15;;
28774;SDS011;15926;51.348;6.596;2023-02-15T05:07:12;48.13;;;20.02;;
28774;SDS011;15926;51.348;6.596;2023-02-15T05:09:39;46.25;;;18.92;;
28774;SDS011;15926;51.348;6.596;2023-02-15T05:12:05;44.42;;;18.85;;
28774;SDS011;15926;51.348;6.596;2023-02-15T05:14:32;44.92;;;19.33;;
28774;SDS011;15926;51.348;6.596;2023-02-15T05:16:58;41.95;;;17.52;;
28774;SDS011;15926;51.348;6.596;2023-02-15T05:19:26;43.40;;;19.10;;
28774;SDS011;15926;51.348;6.596;2023-02-15T05:21:52;44.50;;;19.20;;
28774;SDS011;15926;51.348;6.596;2023-02-15T05:24:18;41.47;;;18.30;;
28774;SDS011;15926;51.348;6.596;2023-02-15T05:27:03;41.28;;;18.30;;
28774;SDS011;15926;51.348;6.596;2023-02-15T05:29:47;41.50;;;19.23;;
28774;SDS011;15926;51.348;6.596;2023-02-15T05:32:13;46.90;;;18.08;;
28774;SDS011;15926;51.348;6.596;2023-02-15T05:34:39;45.08;;;19.38;;
28774;SDS011;15926;51.348;6.596;2023-02-15T05:37:05;41.67;;;18.35;;
28774;SDS011;15926;51.348;6.596;2023-02-15T05:39:32;48.03;;;19.00;;
28774;SDS011;15926;51.348;6.596;2023-02-15T05:41:59;45.00;;;17.73;;
28774;SDS011;15926;51.348;6.596;2023-02-15T05:44:25;43.90;;;18.52;;
28774;SDS011;15926;51.348;6.596;2023-02-15T05:46:51;45.35;;;19.00;;
28774;SDS011;15926;51.348;6.596;2023-02-15T05:49:17;43.80;;;19.10;;
28774;SDS011;15926;51.348;6.596;2023-02-15T05:51:43;37.90;;;18.45;;
28774;SDS011;15926;51.348;6.596;2023-02-15T05:54:09;44.45;;;18.00;;
28774;SDS011;15926;51.348;6.596;2023-02-15T05:56:35;47.03;;;19.33;;
28774;SDS011;15926;51.348;6.596;2023-02-15T05:59:01;39.47;;;18.35;;
28774;SDS011;15926;51.348;6.596;2023-02-15T06:01:27;46.10;;;18.70;;
28774;SDS011;15926;51.348;6.596;2023-02-15T06:03:53;46.00;;;18.75;;
28774;SDS011;15926;51.348;6.596;2023-02-15T06:06:20;43.60;;;18.83;;
28774;SDS011;15926;51.348;6.596;2023-02-15T06:08:46;40.35;;;18.85;;
28774;SDS011;15926;51.348;6.596;2023-02-15T06:11:12;46.42;;;20.38;;
28774;SDS011;15926;51.348;6.596;2023-02-15T06:13:38;47.80;;;19.92;;
28774;SDS011;15926;51.348;6.596;2023-02-15T06:16:05;38.90;;;18.75;;
28774;SDS011;15926;51.348;6.596;2023-02-15T06:18:31;47.78;;;18.92;;
28774;SDS011;15926;51.348;6.596;2023-02-15T06:20:57;44.33;;;18.75;;
28774;SDS011;15926;51.348;6.596;2023-02-15T06:23:23;44.08;;;18.45;;
28774;SDS011;15926;51.348;6.596;2023-02-15T06:25:49;37.22;;;17.38;;
28774;SDS011;15926;51.348;6.596;2023-02-15T06:28:15;40.42;;;17.77;;
28774;SDS011;15926;51.348;6.596;2023-02-15T06:30:41;44.90;;;18.20;;
28774;SDS011;15926;51.348;6.596;2023-02-15T06:33:07;44.92;;;19.17;;
28774;SDS011;15926;51.348;6.596;2023-02-15T06:35:33;42.75;;;18.67;;
28774;SDS011;15926;51.348;6.596;2023-02-15T06:37:59;49.95;;;19.17;;
28774;SDS011;15926;51.348;6.596;2023-02-15T06:40:25;44.00;;;18.90;;
28774;SDS011;15926;51.348;6.596;2023-02-15T06:42:50;40.67;;;17.70;;
28774;SDS011;15926;51.348;6.596;2023-02-15T06:45:16;42.70;;;17.70;;
28774;SDS011;15926;51.348;6.596;2023-02-15T06:47:42;35.83;;;16.92;;
28774;SDS011;15926;51.348;6.596;2023-02-15T06:50:09;43.47;;;18.83;;
28774;SDS011;15926;51.348;6.596;2023-02-15T06:52:35;41.80;;;18.00;;
28774;SDS011;15926;51.348;6.596;2023-02-15T06:55:01;39.97;;;18.63;;
28774;SDS011;15926;51.348;6.596;2023-02-15T06:57:27;42.75;;;17.67;;
28774;SDS011;15926;51.348;6.596;2023-02-15T06:59:53;36.45;;;16.50;;
28774;SDS011;15926;51.348;6.596;2023-02-15T07:02:19;45.95;;;18.25;;
28774;SDS011;15926;51.348;6.596;2023-02-15T07:04:45;38.53;;;17.63;;
28774;SDS011;15926;51.348;6.596;2023-02-15T07:07:11;45.28;;;19.30;;
28774;SDS011;15926;51.348;6.596;2023-02-15T07:09:37;43.13;;;17.58;;
28774;SDS011;15926;51.348;6.596;2023-02-15T07:12:04;45.70;;;18.25;;
28774;SDS011;15926;51.348;6.596;2023-02-15T07:14:49;46.25;;;18.77;;
28774;SDS011;15926;51.348;6.596;2023-02-15T07:17:15;45.33;;;18.58;;
28774;SDS011;15926;51.348;6.596;2023-02-15T07:19:42;42.55;;;17.88;;
28774;SDS011;15926;51.348;6.596;2023-02-15T07:22:08;37.35;;;17.05;;
28774;SDS011;15926;51.348;6.596;2023-02-15T07:24:34;41.53;;;18.75;;
28774;SDS011;15926;51.348;6.596;2023-02-15T07:27:00;38.15;;;17.42;;
28774;SDS011;15926;51.348;6.596;2023-02-15T07:29:26;38.65;;;17.60;;
28774;SDS011;15926;51.348;6.596;2023-02-15T07:31:52;42.28;;;17.70;;
28774;SDS011;15926;51.348;6.596;2023-02-15T07:34:18;37.65;;;16.58;;
28774;SDS011;15926;51.348;6.596;2023-02-15T07:36:44;40.67;;;17.02;;
28774;SDS011;15926;51.348;6.596;2023-02-15T07:39:10;34.60;;;15.55;;
28774;SDS011;15926;51.348;6.596;2023-02-15T07:41:36;35.45;;;16.75;;
28774;SDS011;15926;51.348;6.596;2023-02-15T07:44:02;40.42;;;17.98;;
28774;SDS011;15926;51.348;6.596;2023-02-15T07:46:28;36.97;;;16.45;;
28774;SDS011;15926;51.348;6.596;2023-02-15T07:48:55;39.22;;;17.38;;
28774;SDS011;15926;51.348;6.596;2023-02-15T07:51:21;35.17;;;15.68;;
28774;SDS011;15926;51.348;6.596;2023-02-15T07:53:47;36.80;;;16.38;;
28774;SDS011;15926;51.348;6.596;2023-02-15T07:56:13;33.58;;;15.48;;
28774;SDS011;15926;51.348;6.596;2023-02-15T07:58:40;39.38;;;15.10;;
28774;SDS011;15926;51.348;6.596;2023-02-15T08:01:27;38.33;;;15.30;;
28774;SDS011;15926;51.348;6.596;2023-02-15T08:03:55;32.35;;;14.98;;
28774;SDS011;15926;51.348;6.596;2023-02-15T08:06:25;35.40;;;15.48;;
28774;SDS011;15926;51.348;6.596;2023-02-15T08:08:52;32.97;;;15.80;;
28774;SDS011;15926;51.348;6.596;2023-02-15T08:11:26;31.98;;;16.33;;
28774;SDS011;15926;51.348;6.596;2023-02-15T08:13:58;30.75;;;14.35;;
28774;SDS011;15926;51.348;6.596;2023-02-15T08:16:26;31.25;;;15.88;;
28774;SDS011;15926;51.348;6.596;2023-02-15T08:18:52;37.28;;;16.30;;
28774;SDS011;15926;51.348;6.596;2023-02-15T08:21:18;37.13;;;14.48;;
28774;SDS011;15926;51.348;6.596;2023-02-15T08:23:44;30.80;;;15.35;;
28774;SDS011;15926;51.348;6.596;2023-02-15T08:26:10;29.60;;;14.60;;
28774;SDS011;15926;51.348;6.596;2023-02-15T08:28:36;36.60;;;14.73;;
28774;SDS011;15926;51.348;6.596;2023-02-15T08:31:06;29.92;;;15.05;;
28774;SDS011;15926;51.348;6.596;2023-02-15T08:33:33;27.55;;;14.15;;
28774;SDS011;15926;51.348;6.596;2023-02-15T08:36:03;30.88;;;14.65;;
28774;SDS011;15926;51.348;6.596;2023-02-15T08:38:29;29.33;;;13.70;;
28774;SDS011;15926;51.348;6.596;2023-02-15T08:40:55;28.73;;;14.90;;
28774;SDS011;15926;51.348;6.596;2023-02-15T08:43:21;35.15;;;15.20;;
28774;SDS011;15926;51.348;6.596;2023-02-15T08:45:47;26.10;;;14.90;;
28774;SDS011;15926;51.348;6.596;2023-02-15T08:48:13;27.40;;;13.30;;
28774;SDS011;15926;51.348;6.596;2023-02-15T08:50:39;28.83;;;14.48;;
28774;SDS011;15926;51.348;6.596;2023-02-15T08:53:05;29.83;;;13.48;;
28774;SDS011;15926;51.348;6.596;2023-02-15T08:55:31;32.40;;;14.63;;
28774;SDS011;15926;51.348;6.596;2023-02-15T08:57:57;27.92;;;13.63;;
28774;SDS011;15926;51.348;6.596;2023-02-15T09:00:23;26.80;;;14.10;;
28774;SDS011;15926;51.348;6.596;2023-02-15T09:02:50;27.52;;;14.38;;
28774;SDS011;15926;51.348;6.596;2023-02-15T09:05:17;27.90;;;12.90;;
28774;SDS011;15926;51.348;6.596;2023-02-15T09:07:43;27.52;;;13.43;;
28774;SDS011;15926;51.348;6.596;2023-02-15T09:10:09;24.15;;;12.65;;
28774;SDS011;15926;51.348;6.596;2023-02-15T09:12:35;29.08;;;13.52;;
28774;SDS011;15926;51.348;6.596;2023-02-15T09:15:01;26.88;;;13.27;;
28774;SDS011;15926;51.348;6.596;2023-02-15T09:17:27;28.00;;;13.82;;
28774;SDS011;15926;51.348;6.596;2023-02-15T09:19:53;29.17;;;13.77;;
28774;SDS011;15926;51.348;6.596;2023-02-15T09:22:19;27.73;;;13.80;;
28774;SDS011;15926;51.348;6.596;2023-02-15T09:24:45;26.05;;;13.55;;
28774;SDS011;15926;51.348;6.596;2023-02-15T09:27:11;25.55;;;13.85;;
28774;SDS011;15926;51.348;6.596;2023-02-15T09:29:37;25.55;;;13.63;;
28774;SDS011;15926;51.348;6.596;2023-02-15T09:32:04;23.00;;;12.68;;
28774;SDS011;15926;51.348;6.596;2023-02-15T09:34:30;26.90;;;13.43;;
28774;SDS011;15926;51.348;6.596;2023-02-15T09:36:56;24.73;;;12.65;;
28774;SDS011;15926;51.348;6.596;2023-02-15T09:39:23;26.15;;;13.88;;
28774;SDS011;15926;51.348;6.596;2023-02-15T09:49:42;27.85;;;12.98;;
28774;SDS011;15926;51.348;6.596;2023-02-15T09:52:26;25.80;;;13.93;;
28774;SDS011;15926;51.348;6.596;2023-02-15T10:00:17;26.67;;;13.27;;
28774;SDS011;15926;51.348;6.596;2023-02-15T10:05:31;24.77;;;13.07;;
28774;SDS011;15926;51.348;6.596;2023-02-15T10:13:21;29.23;;;13.30;;
28774;SDS011;15926;51.348;6.596;2023-02-15T10:15:53;21.92;;;12.55;;
28774;SDS011;15926;51.348;6.596;2023-02-15T10:21:15;22.33;;;12.63;;
28774;SDS011;15926;51.348;6.596;2023-02-15T10:26:22;23.73;;;13.20;;
28774;SDS011;15926;51.348;6.596;2023-02-15T10:28:53;21.55;;;12.55;;
28774;SDS011;15926;51.348;6.596;2023-02-15T10:41:46;20.77;;;12.02;;
28774;SDS011;15926;51.348;6.596;2023-02-15T10:44:30;21.48;;;12.50;;
28774;SDS011;15926;51.348;6.596;2023-02-15T10:54:48;22.35;;;11.43;;
28774;SDS011;15926;51.348;6.596;2023-02-15T11:00:39;18.80;;;11.50;;
28774;SDS011;15926;51.348;6.596;2023-02-15T11:07:51;25.48;;;12.80;;
28774;SDS011;15926;51.348;6.596;2023-02-15T11:12:56;25.67;;;12.57;;
28774;SDS011;15926;51.348;6.596;2023-02-15T11:20:55;22.80;;;11.30;;
28774;SDS011;15926;51.348;6.596;2023-02-15T11:23:22;19.60;;;11.43;;
28774;SDS011;15926;51.348;6.596;2023-02-15T11:26:32;19.92;;;11.13;;
28774;SDS011;15926;51.348;6.596;2023-02-15T11:31:17;19.33;;;10.88;;
28774;SDS011;15926;51.348;6.596;2023-02-15T11:33:46;21.70;;;11.20;;
28774;SDS011;15926;51.348;6.596;2023-02-15T11:36:15;21.48;;;11.98;;
28774;SDS011;15926;51.348;6.596;2023-02-15T11:38:42;16.63;;;10.60;;
28774;SDS011;15926;51.348;6.596;2023-02-15T11:41:11;17.65;;;11.20;;
28774;SDS011;15926;51.348;6.596;2023-02-15T11:46:03;20.63;;;11.07;;
28774;SDS011;15926;51.348;6.596;2023-02-15T11:48:30;20.85;;;11.18;;
28774;SDS011;15926;51.348;6.596;2023-02-15T11:50:57;22.10;;;12.55;;
28774;SDS011;15926;51.348;6.596;2023-02-15T11:53:23;21.10;;;11.63;;
28774;SDS011;15926;51.348;6.596;2023-02-15T11:55:53;20.40;;;11.43;;
28774;SDS011;15926;51.348;6.596;2023-02-15T11:58:38;25.50;;;11.48;;
28774;SDS011;15926;51.348;6.596;2023-02-15T12:01:40;19.50;;;11.85;;
28774;SDS011;15926;51.348;6.596;2023-02-15T12:04:06;19.38;;;11.43;;
28774;SDS011;15926;51.348;6.596;2023-02-15T12:06:33;21.70;;;11.57;;
28774;SDS011;15926;51.348;6.596;2023-02-15T12:09:07;21.00;;;11.25;;
28774;SDS011;15926;51.348;6.596;2023-02-15T12:11:38;17.48;;;10.55;;
28774;SDS011;15926;51.348;6.596;2023-02-15T12:14:05;19.15;;;11.52;;
28774;SDS011;15926;51.348;6.596;2023-02-15T12:16:33;19.95;;;11.10;;
28774;SDS011;15926;51.348;6.596;2023-02-15T12:19:00;21.27;;;11.30;;
28774;SDS011;15926;51.348;6.596;2023-02-15T12:21:28;19.50;;;12.02;;
28774;SDS011;15926;51.348;6.596;2023-02-15T12:24:37;17.90;;;10.10;;
28774;SDS011;15926;51.348;6.596;2023-02-15T12:26:44;18.42;;;11.18;;
28774;SDS011;15926;51.348;6.596;2023-02-15T12:29:16;18.80;;;10.90;;
28774;SDS011;15926;51.348;6.596;2023-02-15T12:31:43;17.58;;;11.32;;
28774;SDS011;15926;51.348;6.596;2023-02-15T12:34:32;17.58;;;10.90;;
28774;SDS011;15926;51.348;6.596;2023-02-15T12:36:57;16.33;;;10.38;;
28774;SDS011;15926;51.348;6.596;2023-02-15T12:39:28;20.38;;;10.95;;
28774;SDS011;15926;51.348;6.596;2023-02-15T12:49:23;17.23;;;10.52;;
28774;SDS011;15926;51.348;6.596;2023-02-15T12:51:54;22.35;;;12.02;;
28774;SDS011;15926;51.348;6.596;2023-02-15T12:54:28;18.85;;;11.15;;
28774;SDS011;15926;51.348;6.596;2023-02-15T12:56:54;21.17;;;11.68;;
28774;SDS011;15926;51.348;6.596;2023-02-15T12:59:22;21.38;;;12.23;;
28774;SDS011;15926;51.348;6.596;2023-02-15T13:01:48;18.00;;;11.32;;
28774;SDS011;15926;51.348;6.596;2023-02-15T13:06:50;19.70;;;11.32;;
28774;SDS011;15926;51.348;6.596;2023-02-15T13:11:43;23.23;;;11.43;;
28774;SDS011;15926;51.348;6.596;2023-02-15T13:14:17;21.13;;;10.95;;
28774;SDS011;15926;51.348;6.596;2023-02-15T13:16:45;17.77;;;10.57;;
28774;SDS011;15926;51.348;6.596;2023-02-15T13:19:18;17.27;;;10.95;;
28774;SDS011;15926;51.348;6.596;2023-02-15T13:21:46;21.83;;;11.32;;
28774;SDS011;15926;51.348;6.596;2023-02-15T13:24:22;21.17;;;11.57;;
28774;SDS011;15926;51.348;6.596;2023-02-15T13:26:48;21.83;;;11.38;;
28774;SDS011;15926;51.348;6.596;2023-02-15T13:29:27;17.98;;;10.70;;
28774;SDS011;15926;51.348;6.596;2023-02-15T13:31:54;18.13;;;10.13;;
28774;SDS011;15926;51.348;6.596;2023-02-15T13:34:34;20.65;;;12.10;;
28774;SDS011;15926;51.348;6.596;2023-02-15T13:37:06;18.60;;;11.45;;
28774;SDS011;15926;51.348;6.596;2023-02-15T13:42:13;20.48;;;10.50;;
28774;SDS011;15926;51.348;6.596;2023-02-15T13:45:02;16.77;;;10.02;;
28774;SDS011;15926;51.348;6.596;2023-02-15T13:53:06;23.17;;;11.05;;
28774;SDS011;15926;51.348;6.596;2023-02-15T13:55:50;20.67;;;10.85;;
28774;SDS011;15926;51.348;6.596;2023-02-15T14:01:06;19.92;;;11.43;;
28774;SDS011;15926;51.348;6.596;2023-02-15T14:09:10;18.35;;;10.85;;
28774;SDS011;15926;51.348;6.596;2023-02-15T14:14:26;18.60;;;11.05;;
28774;SDS011;15926;51.348;6.596;2023-02-15T14:19:33;17.55;;;10.45;;
28774;SDS011;15926;51.348;6.596;2023-02-15T14:24:50;19.40;;;10.90;;
28774;SDS011;15926;51.348;6.596;2023-02-15T14:27:32;17.58;;;10.45;;
28774;SDS011;15926;51.348;6.596;2023-02-15T14:30:02;17.35;;;10.48;;
28774;SDS011;15926;51.348;6.596;2023-02-15T14:32:30;21.63;;;10.88;;
28774;SDS011;15926;51.348;6.596;2023-02-15T14:35:01;19.35;;;11.50;;
28774;SDS011;15926;51.348;6.596;2023-02-15T14:40:06;20.10;;;11.20;;
28774;SDS011;15926;51.348;6.596;2023-02-15T14:43:06;18.17;;;10.43;;
28774;SDS011;15926;51.348;6.596;2023-02-15T14:45:36;19.55;;;11.70;;
28774;SDS011;15926;51.348;6.596;2023-02-15T14:48:42;18.95;;;10.32;;
28774;SDS011;15926;51.348;6.596;2023-02-15T14:51:00;20.20;;;11.27;;
28774;SDS011;15926;51.348;6.596;2023-02-15T15:01:24;19.98;;;11.43;;
28774;SDS011;15926;51.348;6.596;2023-02-15T15:03:51;20.27;;;12.00;;
28774;SDS011;15926;51.348;6.596;2023-02-15T15:06:31;19.70;;;11.30;;
28774;SDS011;15926;51.348;6.596;2023-02-15T15:09:41;22.73;;;12.68;;
28774;SDS011;15926;51.348;6.596;2023-02-15T15:11:51;19.20;;;10.63;;
28774;SDS011;15926;51.348;6.596;2023-02-15T15:16:56;18.15;;;11.00;;
28774;SDS011;15926;51.348;6.596;2023-02-15T15:22:11;19.38;;;11.05;;
28774;SDS011;15926;51.348;6.596;2023-02-15T15:29:53;16.98;;;10.70;;
28774;SDS011;15926;51.348;6.596;2023-02-15T15:32:19;18.17;;;10.63;;
28774;SDS011;15926;51.348;6.596;2023-02-15T15:37:57;16.40;;;10.55;;
28774;SDS011;15926;51.348;6.596;2023-02-15T15:45:49;19.92;;;10.45;;
28774;SDS011;15926;51.348;6.596;2023-02-15T15:48:23;19.63;;;10.10;;
28774;SDS011;15926;51.348;6.596;2023-02-15T15:50:53;14.95;;;10.18;;
28774;SDS011;15926;51.348;6.596;2023-02-15T15:53:23;16.40;;;10.73;;
28774;SDS011;15926;51.348;6.596;2023-02-15T15:55:50;21.77;;;11.30;;
28774;SDS011;15926;51.348;6.596;2023-02-15T15:58:19;20.00;;;11.25;;
28774;SDS011;15926;51.348;6.596;2023-02-15T16:00:49;18.63;;;10.98;;
28774;SDS011;15926;51.348;6.596;2023-02-15T16:03:20;20.90;;;10.45;;
28774;SDS011;15926;51.348;6.596;2023-02-15T16:05:47;20.88;;;10.95;;
28774;SDS011;15926;51.348;6.596;2023-02-15T16:08:28;18.48;;;10.35;;
28774;SDS011;15926;51.348;6.596;2023-02-15T16:10:54;18.08;;;10.10;;
28774;SDS011;15926;51.348;6.596;2023-02-15T16:13:20;18.00;;;10.35;;
28774;SDS011;15926;51.348;6.596;2023-02-15T16:15:47;16.88;;;10.73;;
28774;SDS011;15926;51.348;6.596;2023-02-15T16:18:17;19.80;;;11.13;;
28774;SDS011;15926;51.348;6.596;2023-02-15T16:20:48;17.92;;;10.85;;
28774;SDS011;15926;51.348;6.596;2023-02-15T16:28:16;18.05;;;10.55;;
28774;SDS011;15926;51.348;6.596;2023-02-15T16:30:43;17.08;;;9.73;;
28774;SDS011;15926;51.348;6.596;2023-02-15T16:33:11;18.92;;;10.48;;
28774;SDS011;15926;51.348;6.596;2023-02-15T16:35:39;17.52;;;10.15;;
28774;SDS011;15926;51.348;6.596;2023-02-15T16:38:08;15.80;;;9.68;;
28774;SDS011;15926;51.348;6.596;2023-02-15T16:43:01;21.50;;;9.80;;
28774;SDS011;15926;51.348;6.596;2023-02-15T16:45:28;16.55;;;9.57;;
28774;SDS011;15926;51.348;6.596;2023-02-15T16:47:56;16.77;;;10.48;;
28774;SDS011;15926;51.348;6.596;2023-02-15T16:50:23;21.30;;;10.77;;
28774;SDS011;15926;51.348;6.596;2023-02-15T16:52:50;20.90;;;10.38;;
28774;SDS011;15926;51.348;6.596;2023-02-15T16:55:23;20.75;;;10.55;;
28774;SDS011;15926;51.348;6.596;2023-02-15T16:57:50;20.23;;;10.98;;
28774;SDS011;15926;51.348;6.596;2023-02-15T17:00:21;16.23;;;10.10;;
28774;SDS011;15926;51.348;6.596;2023-02-15T17:02:58;20.40;;;11.80;;
28774;SDS011;15926;51.348;6.596;2023-02-15T17:05:29;18.38;;;10.15;;
28774;SDS011;15926;51.348;6.596;2023-02-15T17:10:32;17.10;;;10.60;;
28774;SDS011;15926;51.348;6.596;2023-02-15T17:13:14;20.38;;;10.13;;
28774;SDS011;15926;51.348;6.596;2023-02-15T17:20:35;16.70;;;9.55;;
28774;SDS011;15926;51.348;6.596;2023-02-15T17:23:03;20.17;;;10.80;;
28774;SDS011;15926;51.348;6.596;2023-02-15T17:25:37;18.73;;;10.38;;
28774;SDS011;15926;51.348;6.596;2023-02-15T17:28:04;17.92;;;10.02;;